createdAt,value
2019-02-05T00:00:43.104Z,4.00
2019-02-05T00:01:43.115Z,4.00
2019-02-05T00:02:43.124Z,4.00
2019-02-05T00:03:43.131Z,4.00
2019-02-05T00:04:43.141Z,4.00
2019-02-05T00:05:43.154Z,4.00
2019-02-05T00:06:43.163Z,4.00
2019-02-05T00:07:43.187Z,4.00
2019-02-05T00:08:43.197Z,4.00
2019-02-05T00:09:43.196Z,4.00
2019-02-05T00:10:43.198Z,4.00
2019-02-05T00:11:43.215Z,4.00
2019-02-05T00:12:43.221Z,4.00
2019-02-05T00:13:43.225Z,4.00
2019-02-05T00:14:43.303Z,4.00
2019-02-05T00:15:43.244Z,4.00
2019-02-05T00:16:43.366Z,4.00
2019-02-05T00:17:43.362Z,4.00
2019-02-05T00:19:43.535Z,4.00
2019-02-05T00:20:43.294Z,4.00
2019-02-05T00:21:43.301Z,4.00
2019-02-05T00:22:43.323Z,4.00
2019-02-05T00:23:43.322Z,4.00
2019-02-05T00:24:43.765Z,4.00
2019-02-05T00:25:43.433Z,4.00
2019-02-05T00:26:43.662Z,4.00
2019-02-05T00:27:43.394Z,4.00
2019-02-05T00:28:43.368Z,4.00
2019-02-05T00:29:43.376Z,4.00
2019-02-05T00:30:43.391Z,4.00
2019-02-05T00:31:43.390Z,4.00
2019-02-05T00:32:43.402Z,4.00
2019-02-05T00:33:44.046Z,4.00
2019-02-05T00:34:43.428Z,4.00
2019-02-05T00:36:43.441Z,4.00
2019-02-05T00:37:43.452Z,4.00
2019-02-05T00:38:43.784Z,4.00
2019-02-05T00:39:43.467Z,4.00
2019-02-05T00:40:43.485Z,4.00
2019-02-05T00:41:43.487Z,4.00
2019-02-05T00:42:43.516Z,4.00
2019-02-05T00:43:43.522Z,4.00
2019-02-05T00:44:43.618Z,4.00
2019-02-05T00:46:43.571Z,4.00
2019-02-05T00:47:43.553Z,4.00
2019-02-05T00:48:43.555Z,4.00
2019-02-05T00:49:43.564Z,4.00
2019-02-05T00:50:43.571Z,4.00
2019-02-05T00:51:43.582Z,4.00
2019-02-05T00:53:43.805Z,4.00
2019-02-05T00:54:43.606Z,4.00
2019-02-05T00:56:43.640Z,4.00
2019-02-05T00:58:44.089Z,4.00
2019-02-05T00:59:44.196Z,4.00
2019-02-05T01:00:43.779Z,4.00
2019-02-05T01:01:43.675Z,4.00
2019-02-05T01:02:43.684Z,4.00
2019-02-05T01:03:43.691Z,4.00
2019-02-05T01:04:43.708Z,4.00
2019-02-05T01:05:43.777Z,4.00
2019-02-05T01:06:43.726Z,4.00
2019-02-05T01:07:43.734Z,4.00
2019-02-05T01:08:43.747Z,4.00
2019-02-05T01:09:43.851Z,4.00
2019-02-05T01:12:44.396Z,4.00
2019-02-05T01:13:43.786Z,4.00
2019-02-05T01:14:44.101Z,4.00
2019-02-05T01:15:43.877Z,4.00
2019-02-05T01:16:43.820Z,4.00
2019-02-05T01:17:43.828Z,4.00
2019-02-05T01:18:43.834Z,4.00
2019-02-05T01:19:43.858Z,4.00
2019-02-05T01:20:43.858Z,4.00
2019-02-05T01:21:43.983Z,4.00
2019-02-05T01:22:43.871Z,4.00
2019-02-05T01:23:43.877Z,4.00
2019-02-05T01:24:43.895Z,4.00
2019-02-05T01:25:43.896Z,4.00
2019-02-05T01:26:44.009Z,4.00
2019-02-05T01:27:44.225Z,4.00
2019-02-05T01:28:43.967Z,4.00
2019-02-05T01:30:44.272Z,4.00
2019-02-05T01:31:43.981Z,4.00
2019-02-05T01:32:43.959Z,4.00
2019-02-05T01:33:43.976Z,4.00
2019-02-05T01:34:43.983Z,4.00
2019-02-05T01:35:43.989Z,4.00
2019-02-05T01:36:44.016Z,4.00
2019-02-05T01:37:44.006Z,4.00
2019-02-05T01:38:44.017Z,4.00
2019-02-05T01:39:44.025Z,4.00
2019-02-05T01:40:44.041Z,4.00
2019-02-05T01:41:44.056Z,4.00
2019-02-05T01:42:44.447Z,4.00
2019-02-05T01:43:44.057Z,4.00
2019-02-05T01:44:44.072Z,4.00
2019-02-05T01:45:44.185Z,4.00
2019-02-05T01:46:44.131Z,4.00
2019-02-05T01:47:44.195Z,4.00
2019-02-05T01:48:44.099Z,4.00
2019-02-05T01:49:44.109Z,4.00
2019-02-05T01:50:44.127Z,4.00
2019-02-05T01:51:44.128Z,4.00
2019-02-05T01:52:44.139Z,4.00
2019-02-05T01:53:44.158Z,4.00
2019-02-05T01:54:44.157Z,4.00
2019-02-05T01:55:44.167Z,4.00
2019-02-05T01:56:44.174Z,4.00
2019-02-05T01:57:44.186Z,4.00
2019-02-05T01:58:44.304Z,4.00
2019-02-05T02:00:44.223Z,4.00
2019-02-05T02:01:44.219Z,4.00
2019-02-05T02:02:44.235Z,4.00
2019-02-05T02:03:44.247Z,4.00
2019-02-05T02:04:44.255Z,4.00
2019-02-05T02:05:44.259Z,4.00
2019-02-05T02:06:44.272Z,4.00
2019-02-05T02:07:44.276Z,4.00
2019-02-05T02:08:44.283Z,4.00
2019-02-05T02:09:44.293Z,4.00
2019-02-05T02:10:44.308Z,4.00
2019-02-05T02:13:44.336Z,4.00
2019-02-05T02:14:44.339Z,4.00
2019-02-05T02:15:44.414Z,4.00
2019-02-05T02:16:44.358Z,4.00
2019-02-05T02:17:44.369Z,4.00
2019-02-05T02:18:44.384Z,4.00
2019-02-05T02:19:44.388Z,4.00
2019-02-05T02:20:44.397Z,4.00
2019-02-05T02:21:44.410Z,4.00
2019-02-05T02:22:44.417Z,4.00
2019-02-05T02:23:44.427Z,4.00
2019-02-05T02:24:44.430Z,4.00
2019-02-05T02:25:44.550Z,4.00
2019-02-05T02:26:51.840Z,4.00
2019-02-05T02:28:45.109Z,4.00
2019-02-05T02:29:45.190Z,4.00
2019-02-05T02:30:45.168Z,4.00
2019-02-05T02:31:44.494Z,4.00
2019-02-05T02:32:44.513Z,4.00
2019-02-05T02:33:44.517Z,4.00
2019-02-05T02:34:44.527Z,4.00
2019-02-05T02:35:44.531Z,4.00
2019-02-05T02:36:44.543Z,4.00
2019-02-05T02:37:44.563Z,4.00
2019-02-05T02:38:44.569Z,4.00
2019-02-05T02:39:44.568Z,4.00
2019-02-05T02:40:44.579Z,4.00
2019-02-05T02:41:44.651Z,4.00
2019-02-05T02:43:44.612Z,4.00
2019-02-05T02:44:44.618Z,4.00
2019-02-05T02:45:44.692Z,4.00
2019-02-05T02:46:44.640Z,4.00
2019-02-05T02:47:44.644Z,4.00
2019-02-05T02:48:44.654Z,4.00
2019-02-05T02:49:44.665Z,4.00
2019-02-05T02:50:44.676Z,4.00
2019-02-05T02:51:44.680Z,4.00
2019-02-05T02:52:44.691Z,4.00
2019-02-05T02:53:44.703Z,4.00
2019-02-05T02:54:44.708Z,4.00
2019-02-05T02:55:44.716Z,4.00
2019-02-05T02:56:44.729Z,4.00
2019-02-05T02:58:45.016Z,4.00
2019-02-05T02:59:44.908Z,4.00
2019-02-05T03:00:45.671Z,4.00
2019-02-05T03:01:45.530Z,4.00
2019-02-05T03:02:44.790Z,4.00
2019-02-05T03:03:44.792Z,4.00
2019-02-05T03:04:44.823Z,4.00
2019-02-05T03:05:44.812Z,4.00
2019-02-05T03:06:44.826Z,4.00
2019-02-05T03:07:44.874Z,4.00
2019-02-05T03:08:44.850Z,4.00
2019-02-05T03:09:44.846Z,4.00
2019-02-05T03:10:44.902Z,4.00
2019-02-05T03:11:44.873Z,4.00
2019-02-05T03:12:44.874Z,4.00
2019-02-05T03:13:44.886Z,4.00
2019-02-05T03:14:44.895Z,4.00
2019-02-05T03:15:44.903Z,4.00
2019-02-05T03:16:44.912Z,4.00
2019-02-05T03:17:44.931Z,4.00
2019-02-05T03:18:44.930Z,4.00
2019-02-05T03:19:44.945Z,4.00
2019-02-05T03:20:44.948Z,4.00
2019-02-05T03:21:44.960Z,4.00
2019-02-05T03:22:45.815Z,4.00
2019-02-05T03:23:44.984Z,4.00
2019-02-05T03:24:44.998Z,4.00
2019-02-05T03:25:44.995Z,4.00
2019-02-05T03:26:45.007Z,4.00
2019-02-05T03:27:45.015Z,4.00
2019-02-05T03:28:45.026Z,4.00
2019-02-05T03:29:45.060Z,4.00
2019-02-05T03:30:45.057Z,4.00
2019-02-05T03:31:45.094Z,4.00
2019-02-05T03:32:45.063Z,4.00
2019-02-05T03:33:45.079Z,4.00
2019-02-05T03:34:45.200Z,4.00
2019-02-05T03:36:45.102Z,4.00
2019-02-05T03:39:45.127Z,4.00
2019-02-05T03:40:45.142Z,4.00
2019-02-05T03:41:45.149Z,4.00
2019-02-05T03:42:45.155Z,4.00
2019-02-05T03:43:45.167Z,4.00
2019-02-05T03:44:45.172Z,4.00
2019-02-05T03:45:45.185Z,4.00
2019-02-05T03:46:45.191Z,4.00
2019-02-05T03:47:45.211Z,4.00
2019-02-05T03:48:45.208Z,4.00
2019-02-05T03:49:45.218Z,4.00
2019-02-05T03:50:45.354Z,4.00
2019-02-05T03:51:45.266Z,4.00
2019-02-05T03:52:45.260Z,4.00
2019-02-05T03:53:45.256Z,4.00
2019-02-05T03:54:45.267Z,4.00
2019-02-05T03:55:45.273Z,4.00
2019-02-05T03:56:45.290Z,4.00
2019-02-05T03:57:45.293Z,4.00
2019-02-05T03:59:45.425Z,4.00
2019-02-05T04:00:45.454Z,4.00
2019-02-05T04:01:45.359Z,4.00
2019-02-05T04:02:45.341Z,4.00
2019-02-05T04:03:45.367Z,4.00
2019-02-05T04:04:45.356Z,4.00
2019-02-05T04:05:45.367Z,4.00
2019-02-05T04:06:45.382Z,4.00
2019-02-05T04:07:45.386Z,4.00
2019-02-05T04:08:45.401Z,4.00
2019-02-05T04:09:45.403Z,4.00
2019-02-05T04:10:45.561Z,4.00
2019-02-05T04:11:45.424Z,4.00
2019-02-05T04:12:45.431Z,4.00
2019-02-05T04:13:45.442Z,4.00
2019-02-05T04:14:45.456Z,4.00
2019-02-05T04:15:45.466Z,4.00
2019-02-05T04:18:45.499Z,4.00
2019-02-05T04:19:45.505Z,4.00
2019-02-05T04:20:45.509Z,4.00
2019-02-05T04:21:45.517Z,4.00
2019-02-05T04:22:45.528Z,4.00
2019-02-05T04:23:45.535Z,4.00
2019-02-05T04:24:45.546Z,4.00
2019-02-05T04:25:45.557Z,4.00
2019-02-05T04:26:45.564Z,4.00
2019-02-05T04:27:47.433Z,4.00
2019-02-05T04:28:46.298Z,4.00
2019-02-05T04:29:45.590Z,4.00
2019-02-05T04:30:46.112Z,4.00
2019-02-05T04:31:45.618Z,4.00
2019-02-05T04:32:45.622Z,4.00
2019-02-05T04:33:45.698Z,4.00
2019-02-05T04:34:45.643Z,4.00
2019-02-05T04:35:45.647Z,4.00
2019-02-05T04:36:45.667Z,4.00
2019-02-05T04:37:45.670Z,4.00
2019-02-05T04:38:45.672Z,4.00
2019-02-05T04:39:45.687Z,4.00
2019-02-05T04:40:45.692Z,4.00
2019-02-05T04:41:45.702Z,4.00
2019-02-05T04:42:45.769Z,4.00
2019-02-05T04:43:45.729Z,4.00
2019-02-05T04:44:45.737Z,4.00
2019-02-05T04:45:45.747Z,4.00
2019-02-05T04:46:45.760Z,4.00
2019-02-05T04:48:45.979Z,4.00
2019-02-05T04:49:45.778Z,4.00
2019-02-05T04:50:45.786Z,4.00
2019-02-05T04:51:45.802Z,4.00
2019-02-05T04:52:45.818Z,4.00
2019-02-05T04:53:45.813Z,4.00
2019-02-05T04:54:45.827Z,4.00
2019-02-05T04:55:45.831Z,4.00
2019-02-05T04:56:45.839Z,4.00
2019-02-05T04:57:57.026Z,4.00
2019-02-05T04:58:45.876Z,4.00
2019-02-05T04:59:45.878Z,4.00
2019-02-05T05:00:45.880Z,4.00
2019-02-05T05:01:45.961Z,4.00
2019-02-05T05:02:45.919Z,4.00
2019-02-05T05:04:46.483Z,4.00
2019-02-05T05:05:46.833Z,4.00
2019-02-05T05:06:45.957Z,4.00
2019-02-05T05:07:45.945Z,4.00
2019-02-05T05:08:45.951Z,4.00
2019-02-05T05:09:45.967Z,4.00
2019-02-05T05:10:45.969Z,4.00
2019-02-05T05:11:45.978Z,4.00
2019-02-05T05:12:45.991Z,4.00
2019-02-05T05:13:45.999Z,4.00
2019-02-05T05:14:46.019Z,4.00
2019-02-05T05:15:46.020Z,4.00
2019-02-05T05:16:46.025Z,4.00
2019-02-05T05:17:46.035Z,4.00
2019-02-05T05:18:46.052Z,4.00
2019-02-05T05:19:46.064Z,4.00
2019-02-05T05:20:46.066Z,4.00
2019-02-05T05:21:46.070Z,4.00
2019-02-05T05:23:46.091Z,4.00
2019-02-05T05:24:46.105Z,4.00
2019-02-05T05:25:46.119Z,4.00
2019-02-05T05:26:46.220Z,4.00
2019-02-05T05:27:46.133Z,4.00
2019-02-05T05:28:46.179Z,4.00
2019-02-05T05:29:46.180Z,4.00
2019-02-05T05:30:46.159Z,4.00
2019-02-05T05:31:46.167Z,4.00
2019-02-05T05:32:46.176Z,4.00
2019-02-05T05:33:46.320Z,4.00
2019-02-05T05:34:46.338Z,4.00
2019-02-05T05:35:46.203Z,4.00
2019-02-05T05:36:46.238Z,4.00
2019-02-05T05:38:46.565Z,4.00
2019-02-05T05:39:46.340Z,4.00
2019-02-05T05:40:46.655Z,4.00
2019-02-05T05:41:46.262Z,4.00
2019-02-05T05:42:46.288Z,4.00
2019-02-05T05:43:46.284Z,0.00
2019-02-05T05:44:46.291Z,4.00
2019-02-05T05:45:46.609Z,4.00
2019-02-05T05:46:46.376Z,4.00
2019-02-05T05:47:46.364Z,4.00
2019-02-05T05:48:47.639Z,4.00
2019-02-05T05:49:47.876Z,4.00
2019-02-05T05:51:46.354Z,4.00
2019-02-05T05:52:46.362Z,4.00
2019-02-05T05:53:46.409Z,4.00
2019-02-05T05:54:47.450Z,4.00
2019-02-05T05:55:46.389Z,4.00
2019-02-05T05:56:46.395Z,4.00
2019-02-05T05:57:46.408Z,4.00
2019-02-05T05:58:47.237Z,4.00
2019-02-05T05:59:46.429Z,4.00
2019-02-05T06:00:47.029Z,4.00
2019-02-05T06:01:46.443Z,4.00
2019-02-05T06:02:46.483Z,4.00
2019-02-05T06:03:46.485Z,4.00
2019-02-05T06:04:46.618Z,4.00
2019-02-05T06:05:46.499Z,4.00
2019-02-05T06:06:46.490Z,4.00
2019-02-05T06:07:46.515Z,4.00
2019-02-05T06:08:46.510Z,4.00
2019-02-05T06:09:46.521Z,4.00
2019-02-05T06:10:46.532Z,4.00
2019-02-05T06:11:46.540Z,4.00
2019-02-05T06:12:46.547Z,4.00
2019-02-05T06:13:46.557Z,4.00
2019-02-05T06:14:46.717Z,4.00
2019-02-05T06:15:46.576Z,4.00
2019-02-05T06:16:46.874Z,4.00
2019-02-05T06:18:46.675Z,4.00
2019-02-05T06:19:46.612Z,4.00
2019-02-05T06:20:46.765Z,4.00
2019-02-05T06:21:46.628Z,4.00
2019-02-05T06:22:46.638Z,8.00
2019-02-05T06:23:46.651Z,8.00
2019-02-05T06:24:46.666Z,4.00
2019-02-05T06:25:46.672Z,4.00
2019-02-05T06:26:46.680Z,8.00
2019-02-05T06:27:46.685Z,4.00
2019-02-05T06:28:46.700Z,4.00
2019-02-05T06:29:46.806Z,4.00
2019-02-05T06:30:46.729Z,4.00
2019-02-05T06:31:46.723Z,4.00
2019-02-05T06:32:46.731Z,4.00
2019-02-05T06:33:46.841Z,4.00
2019-02-05T06:34:47.357Z,4.00
2019-02-05T06:35:46.765Z,4.00
2019-02-05T06:36:47.727Z,4.00
2019-02-05T06:37:47.498Z,4.00
2019-02-05T06:39:46.812Z,4.00
2019-02-05T06:40:46.830Z,8.00
2019-02-05T06:41:46.834Z,8.00
2019-02-05T06:42:46.825Z,4.00
2019-02-05T06:43:46.836Z,4.00
2019-02-05T06:44:46.845Z,8.00
2019-02-05T06:46:46.940Z,8.00
2019-02-05T06:48:47.269Z,8.00
2019-02-05T06:50:46.913Z,8.00
2019-02-05T06:51:46.907Z,8.00
2019-02-05T06:52:46.923Z,8.00
2019-02-05T06:53:46.933Z,8.00
2019-02-05T06:54:47.021Z,8.00
2019-02-05T06:55:46.945Z,8.00
2019-02-05T06:56:46.958Z,12.00
2019-02-05T06:59:47.499Z,16.00
2019-02-05T07:00:47.682Z,16.00
2019-02-05T07:01:47.120Z,16.00
2019-02-05T07:02:47.018Z,20.00
2019-02-05T07:03:47.027Z,20.00
2019-02-05T07:04:47.035Z,20.00
2019-02-05T07:05:47.131Z,24.00
2019-02-05T07:06:47.112Z,24.00
2019-02-05T07:08:47.117Z,24.00
2019-02-05T07:09:47.293Z,24.00
2019-02-05T07:10:47.099Z,28.00
2019-02-05T07:11:47.134Z,32.00
2019-02-05T07:12:49.190Z,32.00
2019-02-05T07:14:47.193Z,40.00
2019-02-05T07:15:47.167Z,40.00
2019-02-05T07:16:47.161Z,40.00
2019-02-05T07:17:49.690Z,44.00
2019-02-05T07:18:47.172Z,44.00
2019-02-05T07:19:47.186Z,40.00
2019-02-05T07:20:47.223Z,40.00
2019-02-05T07:21:47.203Z,48.00
2019-02-05T07:22:47.211Z,52.00
2019-02-05T07:23:47.378Z,52.00
2019-02-05T07:24:47.230Z,56.00
2019-02-05T07:25:47.573Z,56.00
2019-02-05T07:26:47.250Z,60.00
2019-02-05T07:27:47.258Z,60.00
2019-02-05T07:28:58.112Z,68.00
2019-02-05T07:29:48.114Z,68.00
2019-02-05T07:30:47.313Z,68.00
2019-02-05T07:32:48.514Z,72.00
2019-02-05T07:33:47.520Z,76.00
2019-02-05T07:34:47.327Z,80.00
2019-02-05T07:35:47.339Z,80.00
2019-02-05T07:36:47.398Z,80.00
2019-02-05T07:39:47.483Z,92.00
2019-02-05T07:40:47.392Z,92.00
2019-02-05T07:41:47.405Z,92.00
2019-02-05T07:42:47.406Z,104.00
2019-02-05T07:43:47.417Z,100.00
2019-02-05T07:44:47.527Z,104.00
2019-02-05T07:45:47.446Z,108.00
2019-02-05T07:46:47.443Z,116.00
2019-02-05T07:47:47.451Z,128.00
2019-02-05T07:48:47.466Z,124.00
2019-02-05T07:49:47.467Z,132.00
2019-02-05T07:50:47.479Z,136.00
2019-02-05T07:51:47.514Z,132.00
2019-02-05T07:52:47.507Z,128.00
2019-02-05T07:53:47.517Z,148.00
2019-02-05T07:54:47.518Z,148.00
2019-02-05T07:55:47.524Z,144.00
2019-02-05T07:56:47.536Z,164.00
2019-02-05T07:57:47.553Z,156.00
2019-02-05T07:58:47.577Z,156.00
2019-02-05T07:59:47.578Z,160.00
2019-02-05T08:00:47.658Z,156.00
2019-02-05T08:01:47.583Z,156.00
2019-02-05T08:02:47.593Z,168.00
2019-02-05T08:03:47.600Z,176.00
2019-02-05T08:04:47.610Z,204.00
2019-02-05T08:05:47.625Z,188.00
2019-02-05T08:06:47.629Z,172.00
2019-02-05T08:07:47.644Z,188.00
2019-02-05T08:08:47.752Z,192.00
2019-02-05T08:09:47.919Z,188.00
2019-02-05T08:10:48.608Z,196.00
2019-02-05T08:11:47.679Z,192.00
2019-02-05T08:12:47.820Z,200.00
2019-02-05T08:13:47.696Z,192.00
2019-02-05T08:14:47.709Z,224.00
2019-02-05T08:15:47.713Z,200.00
2019-02-05T08:16:48.151Z,216.00
2019-02-05T08:18:47.749Z,212.00
2019-02-05T08:19:47.745Z,216.00
2019-02-05T08:20:47.758Z,256.00
2019-02-05T08:21:48.865Z,252.00
2019-02-05T08:22:47.776Z,252.00
2019-02-05T08:23:47.786Z,236.00
2019-02-05T08:24:47.797Z,256.00
2019-02-05T08:25:47.807Z,264.00
2019-02-05T08:26:47.814Z,284.00
2019-02-05T08:27:47.832Z,280.00
2019-02-05T08:28:47.846Z,292.00
2019-02-05T08:29:47.890Z,300.00
2019-02-05T08:30:47.853Z,324.00
2019-02-05T08:31:47.985Z,320.00
2019-02-05T08:32:48.028Z,332.00
2019-02-05T08:33:48.755Z,368.00
2019-02-05T08:34:47.892Z,356.00
2019-02-05T08:35:48.209Z,376.00
2019-02-05T08:36:47.918Z,372.00
2019-02-05T08:37:47.925Z,384.00
2019-02-05T08:38:47.935Z,408.00
2019-02-05T08:39:47.945Z,412.00
2019-02-05T08:40:47.998Z,392.00
2019-02-05T08:41:47.988Z,404.00
2019-02-05T08:42:48.569Z,412.00
2019-02-05T08:43:47.977Z,412.00
2019-02-05T08:44:48.020Z,400.00
2019-02-05T08:45:56.330Z,436.00
2019-02-05T08:46:48.026Z,432.00
2019-02-05T08:47:48.012Z,428.00
2019-02-05T08:48:48.174Z,428.00
2019-02-05T08:50:48.044Z,420.00
2019-02-05T08:51:48.051Z,424.00
2019-02-05T08:52:48.072Z,420.00
2019-02-05T08:53:48.072Z,420.00
2019-02-05T08:54:48.084Z,404.00
2019-02-05T08:55:48.363Z,436.00
2019-02-05T08:57:48.110Z,436.00
2019-02-05T08:58:48.285Z,412.00
2019-02-05T08:59:48.262Z,476.00
2019-02-05T09:00:48.141Z,472.00
2019-02-05T09:01:48.350Z,452.00
2019-02-05T09:02:48.168Z,456.00
2019-02-05T09:03:48.175Z,492.00
2019-02-05T09:04:48.294Z,496.00
2019-02-05T09:05:48.195Z,472.00
2019-02-05T09:06:48.209Z,456.00
2019-02-05T09:07:48.204Z,500.00
2019-02-05T09:08:48.243Z,536.00
2019-02-05T09:09:48.294Z,484.00
2019-02-05T09:10:48.241Z,492.00
2019-02-05T09:11:48.444Z,500.00
2019-02-05T09:12:48.277Z,460.00
2019-02-05T09:13:48.264Z,500.00
2019-02-05T09:14:48.270Z,496.00
2019-02-05T09:15:48.280Z,464.00
2019-02-05T09:16:48.305Z,464.00
2019-02-05T09:17:48.297Z,440.00
2019-02-05T09:18:48.325Z,480.00
2019-02-05T09:19:48.322Z,480.00
2019-02-05T09:20:48.456Z,496.00
2019-02-05T09:21:48.348Z,456.00
2019-02-05T09:22:48.348Z,468.00
2019-02-05T09:23:48.359Z,456.00
2019-02-05T09:24:48.365Z,452.00
2019-02-05T09:25:48.375Z,500.00
2019-02-05T09:26:48.389Z,488.00
2019-02-05T09:27:48.398Z,524.00
2019-02-05T09:28:48.459Z,504.00
2019-02-05T09:30:48.451Z,536.00
2019-02-05T09:31:48.433Z,496.00
2019-02-05T09:32:48.444Z,484.00
2019-02-05T09:33:48.459Z,492.00
2019-02-05T09:34:48.682Z,492.00
2019-02-05T09:35:48.650Z,496.00
2019-02-05T09:36:48.487Z,476.00
2019-02-05T09:37:48.490Z,460.00
2019-02-05T09:38:48.501Z,520.00
2019-02-05T09:39:48.518Z,532.00
2019-02-05T09:40:48.532Z,532.00
2019-02-05T09:41:48.530Z,500.00
2019-02-05T09:42:48.542Z,492.00
2019-02-05T09:43:48.555Z,536.00
2019-02-05T09:44:48.576Z,500.00
2019-02-05T09:45:48.576Z,492.00
2019-02-05T09:46:48.592Z,468.00
2019-02-05T09:47:49.306Z,444.00
2019-02-05T09:48:48.613Z,444.00
2019-02-05T09:49:48.614Z,468.00
2019-02-05T09:50:48.635Z,468.00
2019-02-05T09:51:48.654Z,464.00
2019-02-05T09:52:48.638Z,472.00
2019-02-05T09:53:48.657Z,464.00
2019-02-05T09:54:48.656Z,444.00
2019-02-05T09:55:48.667Z,448.00
2019-02-05T09:56:48.675Z,460.00
2019-02-05T09:57:49.768Z,468.00
2019-02-05T09:58:48.696Z,472.00
2019-02-05T09:59:48.705Z,508.00
2019-02-05T10:00:48.714Z,480.00
2019-02-05T10:01:48.723Z,516.00
2019-02-05T10:02:48.733Z,572.00
2019-02-05T10:03:48.742Z,620.00
2019-02-05T10:04:48.816Z,640.00
2019-02-05T10:06:50.161Z,560.00
2019-02-05T10:07:48.788Z,536.00
2019-02-05T10:08:48.815Z,568.00
2019-02-05T10:09:51.136Z,624.00
2019-02-05T10:10:49.581Z,824.00
2019-02-05T10:11:48.821Z,988.00
2019-02-05T10:12:48.837Z,984.00
2019-02-05T10:13:48.842Z,944.00
2019-02-05T10:14:48.871Z,960.00
2019-02-05T10:15:48.858Z,1052.00
2019-02-05T10:16:48.871Z,1032.00
2019-02-05T10:17:48.879Z,1056.00
2019-02-05T10:18:48.901Z,1152.00
2019-02-05T10:19:48.903Z,1092.00
2019-02-05T10:20:48.922Z,1164.00
2019-02-05T10:21:48.988Z,1140.00
2019-02-05T10:22:48.930Z,1144.00
2019-02-05T10:23:48.941Z,1028.00
2019-02-05T10:24:49.947Z,1052.00
2019-02-05T10:25:48.972Z,1152.00
2019-02-05T10:26:48.969Z,1116.00
2019-02-05T10:27:49.060Z,1028.00
2019-02-05T10:28:49.027Z,1048.00
2019-02-05T10:29:57.793Z,1060.00
2019-02-05T10:30:49.017Z,1072.00
2019-02-05T10:31:49.027Z,1116.00
2019-02-05T10:32:49.027Z,1136.00
2019-02-05T10:33:55.379Z,1096.00
2019-02-05T10:34:49.052Z,1064.00
2019-02-05T10:35:49.068Z,1000.00
2019-02-05T10:36:49.070Z,1052.00
2019-02-05T10:37:49.085Z,1096.00
2019-02-05T10:38:49.098Z,1120.00
2019-02-05T10:39:49.099Z,1088.00
2019-02-05T10:40:49.118Z,1136.00
2019-02-05T10:41:49.120Z,1172.00
2019-02-05T10:42:49.132Z,1268.00
2019-02-05T10:43:49.141Z,1336.00
2019-02-05T10:44:49.149Z,1056.00
2019-02-05T10:45:49.245Z,952.00
2019-02-05T10:46:49.173Z,956.00
2019-02-05T10:47:49.178Z,920.00
2019-02-05T10:48:49.318Z,916.00
2019-02-05T10:49:49.204Z,1012.00
2019-02-05T10:50:49.213Z,1048.00
2019-02-05T10:51:49.222Z,944.00
2019-02-05T10:52:49.244Z,876.00
2019-02-05T10:53:49.241Z,808.00
2019-02-05T10:54:49.262Z,852.00
2019-02-05T10:55:49.264Z,968.00
2019-02-05T10:56:49.276Z,896.00
2019-02-05T10:57:49.284Z,860.00
2019-02-05T10:58:49.293Z,840.00
2019-02-05T10:59:49.305Z,832.00
2019-02-05T11:00:49.309Z,804.00
2019-02-05T11:01:49.619Z,776.00
2019-02-05T11:02:49.337Z,748.00
2019-02-05T11:03:49.353Z,772.00
2019-02-05T11:04:49.350Z,768.00
2019-02-05T11:05:49.363Z,844.00
2019-02-05T11:06:49.372Z,948.00
2019-02-05T11:07:49.375Z,952.00
2019-02-05T11:08:49.394Z,840.00
2019-02-05T11:09:49.412Z,764.00
2019-02-05T11:10:49.418Z,748.00
2019-02-05T11:11:49.415Z,728.00
2019-02-05T11:12:49.426Z,704.00
2019-02-05T11:13:49.441Z,696.00
2019-02-05T11:14:49.448Z,716.00
2019-02-05T11:15:49.458Z,768.00
2019-02-05T11:16:49.467Z,780.00
2019-02-05T11:17:49.475Z,736.00
2019-02-05T11:18:49.827Z,704.00
2019-02-05T11:19:49.496Z,720.00
2019-02-05T11:20:49.506Z,756.00
2019-02-05T11:21:49.583Z,812.00
2019-02-05T11:22:49.645Z,864.00
2019-02-05T11:23:49.543Z,860.00
2019-02-05T11:24:49.544Z,856.00
2019-02-05T11:25:49.561Z,860.00
2019-02-05T11:26:49.563Z,876.00
2019-02-05T11:27:49.572Z,900.00
2019-02-05T11:28:49.585Z,916.00
2019-02-05T11:29:49.596Z,956.00
2019-02-05T11:30:49.607Z,924.00
2019-02-05T11:31:49.612Z,940.00
2019-02-05T11:32:49.639Z,944.00
2019-02-05T11:33:49.636Z,944.00
2019-02-05T11:34:49.644Z,952.00
2019-02-05T11:35:49.660Z,940.00
2019-02-05T11:36:49.671Z,920.00
2019-02-05T11:37:49.682Z,904.00
2019-02-05T11:38:49.690Z,840.00
2019-02-05T11:39:49.919Z,772.00
2019-02-05T11:40:49.703Z,768.00
2019-02-05T11:41:49.714Z,772.00
2019-02-05T11:42:49.724Z,736.00
2019-02-05T11:43:49.759Z,740.00
2019-02-05T11:44:49.746Z,796.00
2019-02-05T11:45:49.756Z,848.00
2019-02-05T11:46:49.765Z,880.00
2019-02-05T11:47:49.787Z,908.00
2019-02-05T11:48:49.827Z,940.00
2019-02-05T11:49:49.804Z,964.00
2019-02-05T11:51:49.815Z,1000.00
2019-02-05T11:52:49.850Z,988.00
2019-02-05T11:53:49.892Z,948.00
2019-02-05T11:54:49.864Z,980.00
2019-02-05T11:55:49.855Z,996.00
2019-02-05T11:56:49.879Z,1024.00
2019-02-05T11:57:49.904Z,984.00
2019-02-05T11:58:49.910Z,968.00
2019-02-05T11:59:50.492Z,952.00
2019-02-05T12:00:50.040Z,868.00
2019-02-05T12:01:49.927Z,816.00
2019-02-05T12:02:49.955Z,796.00
2019-02-05T12:03:49.939Z,776.00
2019-02-05T12:04:49.944Z,760.00
2019-02-05T12:05:50.538Z,732.00
2019-02-05T12:06:50.019Z,724.00
2019-02-05T12:07:49.977Z,772.00
2019-02-05T12:08:49.993Z,828.00
2019-02-05T12:09:50.003Z,820.00
2019-02-05T12:10:50.013Z,832.00
2019-02-05T12:11:50.021Z,796.00
2019-02-05T12:12:50.020Z,824.00
2019-02-05T12:15:50.067Z,964.00
2019-02-05T12:16:50.064Z,952.00
2019-02-05T12:17:50.082Z,988.00
2019-02-05T12:19:50.626Z,916.00
2019-02-05T12:20:50.748Z,884.00
2019-02-05T12:22:51.450Z,828.00
2019-02-05T12:23:50.368Z,908.00
2019-02-05T12:24:50.156Z,956.00
2019-02-05T12:26:50.175Z,876.00
2019-02-05T12:27:50.584Z,888.00
2019-02-05T12:28:50.211Z,1008.00
2019-02-05T12:29:50.205Z,1036.00
2019-02-05T12:30:50.258Z,1032.00
2019-02-05T12:31:50.240Z,964.00
2019-02-05T12:33:50.279Z,888.00
2019-02-05T12:34:50.259Z,816.00
2019-02-05T12:37:50.310Z,780.00
2019-02-05T12:38:50.308Z,740.00
2019-02-05T12:39:50.355Z,768.00
2019-02-05T12:41:50.543Z,852.00
2019-02-05T12:43:50.447Z,904.00
2019-02-05T12:44:50.357Z,1048.00
2019-02-05T12:45:50.360Z,960.00
2019-02-05T12:46:50.462Z,912.00
2019-02-05T12:47:50.418Z,932.00
2019-02-05T12:49:50.401Z,880.00
2019-02-05T12:50:50.403Z,908.00
2019-02-05T12:51:50.500Z,932.00
2019-02-05T12:52:50.434Z,884.00
2019-02-05T12:53:50.499Z,772.00
2019-02-05T12:54:50.456Z,720.00
2019-02-05T12:55:50.457Z,708.00
2019-02-05T12:56:50.470Z,688.00
2019-02-05T12:57:50.488Z,680.00
2019-02-05T12:58:50.646Z,680.00
2019-02-05T12:59:50.506Z,748.00
2019-02-05T13:00:59.223Z,864.00
2019-02-05T13:01:50.535Z,860.00
2019-02-05T13:02:50.537Z,724.00
2019-02-05T13:03:50.541Z,644.00
2019-02-05T13:04:50.649Z,684.00
2019-02-05T13:05:50.840Z,872.00
2019-02-05T13:06:50.717Z,932.00
2019-02-05T13:07:50.631Z,900.00
2019-02-05T13:08:50.743Z,924.00
2019-02-05T13:09:50.600Z,948.00
2019-02-05T13:10:50.608Z,876.00
2019-02-05T13:11:51.257Z,760.00
2019-02-05T13:12:51.022Z,664.00
2019-02-05T13:13:50.645Z,628.00
2019-02-05T13:14:50.653Z,632.00
2019-02-05T13:15:51.117Z,692.00
2019-02-05T13:16:50.670Z,724.00
2019-02-05T13:17:50.753Z,716.00
2019-02-05T13:18:51.971Z,672.00
2019-02-05T13:19:51.303Z,688.00
2019-02-05T13:20:51.055Z,672.00
2019-02-05T13:21:50.734Z,684.00
2019-02-05T13:22:50.862Z,692.00
2019-02-05T13:23:50.748Z,684.00
2019-02-05T13:24:50.749Z,652.00
2019-02-05T13:25:50.770Z,628.00
2019-02-05T13:26:50.797Z,632.00
2019-02-05T13:27:50.785Z,656.00
2019-02-05T13:28:50.807Z,680.00
2019-02-05T13:30:51.218Z,684.00
2019-02-05T13:31:52.214Z,696.00
2019-02-05T13:32:50.867Z,724.00
2019-02-05T13:33:50.882Z,768.00
2019-02-05T13:34:50.864Z,732.00
2019-02-05T13:35:50.888Z,688.00
2019-02-05T13:36:53.270Z,680.00
2019-02-05T13:37:52.721Z,688.00
2019-02-05T13:38:50.907Z,652.00
2019-02-05T13:39:51.654Z,628.00
2019-02-05T13:40:51.313Z,616.00
2019-02-05T13:41:50.941Z,616.00
2019-02-05T13:42:51.179Z,616.00
2019-02-05T13:43:51.696Z,584.00
2019-02-05T13:44:50.967Z,548.00
2019-02-05T13:45:50.975Z,528.00
2019-02-05T13:46:51.450Z,544.00
2019-02-05T13:47:50.987Z,572.00
2019-02-05T13:48:51.014Z,576.00